DTO weather

Denton Municipal Airport
Denton, Texas, United States

Public forecast

Using degrees Fahrenheit for public forecast. Weather courtesy of forecast.io.

Current aviation weather report (METAR) for Denton Municipal Airport

Retrieved 2020/01/19 22:53 UTC (60 minutes ago):

KDTO 192253Z 00000KT 10SM CLR 12/M08 A3049 RMK AO2 SLP324 T01171078

Closest aviation forecast (TAF) to Denton Municipal Airport

Closest forecast is Fort Worth Alliance Airport, 14.2 nm (26.2 km) SSW. Retrieved 2020/01/19 18:27 UTC (5 hours ago):

TAF KAFW 191724Z 1918/2018 01007KT P6SM SKC FM200000 34005KT P6SM SCT250 FM201600 10004KT P6SM SKC